Time;durP1;ratioP1;P1;durP2;ratioP2;P2;SDS_P1;SDS_P2;PMS_P1;PMS_P2;Temp;Humidity;BMP_temperature;BMP_pressure;BME280_temperature;BME280_humidity;BME280_pressure;Samples;Min_cycle;Max_cycle;Signal;HPM_P1;HPM_P2
2022/01/03 15:56:26;;;;;;;;;;;;;;;8.67;71.43;99593.47;5106119;27;1420;-87
2022/01/03 15:58:51;;;;;;;;;;;;;;;8.63;71.53;99587.75;5091047;28;1106;-86
2022/01/03 16:01:16;;;;;;;;;;;;;;;8.63;72.25;99592.41;5090428;28;849;-87
2022/01/03 16:03:41;;;;;;;;;;;;;;;8.63;72.37;99589.66;5090478;28;1967;-88
2022/01/03 16:06:06;;;;;;;;;;;;;;;8.63;72.71;99592.41;5090676;28;1027;-90
2022/01/03 16:08:32;;;;;;;;;;;;;;;8.61;73.11;99592.69;5079445;28;1294;-88
2022/01/03 16:10:57;;;;;;;;;;;;;;;8.56;74.10;99586.47;5067411;28;2069;-89
2022/01/03 16:13:22;;;;;;;;;;;;;;;8.50;74.31;99598.56;5072511;28;1217;-89
2022/01/03 16:15:47;;;;;;;;;;;;;;;8.47;74.69;99590.94;5072656;28;1436;-89
2022/01/03 16:18:12;;;;;;;;;;;;;;;8.38;74.50;99579.84;5072123;28;1391;-88
2022/01/03 16:20:40;;;;;;;;;;;;;;;8.34;74.98;99578.78;5071542;28;1020;-87
2022/01/03 16:23:05;;;;;;;;;;;;;;;8.37;74.73;99578.22;5071438;28;1272;-87
2022/01/03 16:25:30;;;;;;;;;;;;;;;8.33;75.05;99580.72;5069802;28;1961;-87
2022/01/03 16:27:56;;;;;;;;;;;;;;;8.35;74.73;99572.22;5069246;28;1082;-88
2022/01/03 16:30:21;;;;;;;;;;;;;;;8.33;75.11;99574.47;5069325;28;1325;-85
2022/01/03 16:32:47;;;;;;;;;;;;;;;8.30;75.42;99575.00;5070207;28;1223;-88
2022/01/03 16:35:13;;;;;;;;;;;;;;;8.37;75.83;99570.03;5070567;28;1028;-89
2022/01/03 16:37:38;;;;;;;;;;;;;;;8.44;75.37;99556.88;5070629;28;849;-89
2022/01/03 16:40:06;;;;;;;;;;;;;;;8.47;75.71;99564.47;5069175;28;1281;-87
2022/01/03 16:42:31;;;;;;;;;;;;;;;8.44;76.15;99547.88;5068901;28;1329;-88
2022/01/03 16:44:57;;;;;;;;;;;;;;;8.34;76.27;99548.78;5068901;28;1910;-86
2022/01/03 16:47:23;;;;;;;;;;;;;;;8.31;76.61;99549.38;5068761;28;1194;-87
2022/01/03 16:49:49;;;;;;;;;;;;;;;8.38;76.47;99549.84;5069324;28;1281;-86
2022/01/03 16:52:14;;;;;;;;;;;;;;;8.38;76.60;99555.31;5069490;28;1329;-87
2022/01/03 16:54:39;;;;;;;;;;;;;;;8.40;76.69;99542.19;5075579;28;1325;-86
2022/01/03 16:57:04;;;;;;;;;;;;;;;8.43;76.64;99543.53;5077606;28;1306;-87
2022/01/03 16:59:30;;;;;;;;;;;;;;;8.51;76.98;99540.16;5075459;28;1287;-86
2022/01/03 17:01:55;;;;;;;;;;;;;;;8.43;76.90;99536.16;5075436;28;1203;-86
2022/01/03 17:04:20;;;;;;;;;;;;;;;8.45;77.16;99533.97;5067823;28;1961;-86
2022/01/03 17:06:47;;;;;;;;;;;;;;;8.43;77.47;99527.97;5055611;28;977;-85
2022/01/03 17:09:12;;;;;;;;;;;;;;;8.51;77.51;99521.06;5055929;28;1363;-85
2022/01/03 17:11:40;;;;;;;;;;;;;;;8.52;77.65;99512.59;5055704;28;1049;-86
2022/01/03 17:14:06;;;;;;;;;;;;;;;8.47;77.67;99518.13;5055242;28;1276;-87
2022/01/03 17:16:55;;;;;;;;;;;;;;;8.47;77.79;99520.03;5055396;28;1345;-86
2022/01/03 17:19:20;;;;;;;;;;;;;;;8.49;78.50;99513.19;5056530;28;826;-86
2022/01/03 17:21:45;;;;;;;;;;;;;;;8.49;78.38;99507.75;5056627;28;1197;-86
2022/01/03 17:24:10;;;;;;;;;;;;;;;8.47;78.45;99512.66;5054936;28;1955;-87
2022/01/03 17:26:36;;;;;;;;;;;;;;;8.48;78.62;99492.47;5055105;28;1045;-84
2022/01/03 17:29:03;;;;;;;;;;;;;;;8.45;79.10;99487.59;5070651;28;1665;-87
2022/01/03 17:31:28;;;;;;;;;;;;;;;8.37;79.36;99487.44;5074937;28;1152;-88
2022/01/03 17:33:55;;;;;;;;;;;;;;;8.42;79.19;99487.38;5074812;28;1307;-87
2022/01/03 17:36:20;;;;;;;;;;;;;;;8.42;79.18;99482.72;5074787;28;1244;-87
2022/01/03 17:38:45;;;;;;;;;;;;;;;8.39;79.26;99475.13;5074885;28;1093;-86
2022/01/03 17:41:10;;;;;;;;;;;;;;;8.38;79.56;99467.25;5074987;28;1219;-86
2022/01/03 17:43:37;;;;;;;;;;;;;;;8.31;79.37;99464.88;5075939;28;1890;-87
2022/01/03 17:46:02;;;;;;;;;;;;;;;8.29;79.45;99467.03;5059094;28;1779;-87
2022/01/03 17:48:29;;;;;;;;;;;;;;;8.18;79.67;99457.34;5054832;28;1196;-87
2022/01/03 17:50:54;;;;;;;;;;;;;;;8.22;79.76;99459.22;5056190;28;916;-87
2022/01/03 17:53:23;;;;;;;;;;;;;;;8.25;79.84;99468.75;5054394;28;1354;-87
2022/01/03 17:55:50;;;;;;;;;;;;;;;8.19;79.87;99454.34;5067834;28;1625;-87
2022/01/03 17:58:17;;;;;;;;;;;;;;;8.19;79.75;99456.25;5055831;28;857;-89
2022/01/03 18:00:42;;;;;;;;;;;;;;;8.13;79.88;99446.50;5054416;28;1320;-89
2022/01/03 18:03:07;;;;;;;;;;;;;;;8.12;80.37;99442.97;5054383;28;1290;-89
2022/01/03 18:05:33;;;;;;;;;;;;;;;8.16;80.25;99449.47;5054421;28;1906;-88
2022/01/03 18:07:58;;;;;;;;;;;;;;;8.18;80.34;99441.81;5052803;28;1286;-88
2022/01/03 18:10:23;;;;;;;;;;;;;;;8.22;80.66;99437.41;5053525;28;1114;-89
2022/01/03 18:12:52;;;;;;;;;;;;;;;8.18;80.44;99436.34;5052937;28;1228;-88
2022/01/03 18:15:18;;;;;;;;;;;;;;;8.03;80.75;99422.91;5053691;28;1215;-88
2022/01/03 18:17:44;;;;;;;;;;;;;;;8.06;80.79;99424.25;5053705;28;1380;-89
2022/01/03 18:20:09;;;;;;;;;;;;;;;8.11;80.65;99430.44;5053466;28;1406;-89
2022/01/03 18:22:35;;;;;;;;;;;;;;;8.10;80.92;99420.63;5053764;28;1221;-89
2022/01/03 18:25:00;;;;;;;;;;;;;;;8.12;80.38;99415.72;5053633;28;1965;-88
2022/01/03 18:27:25;;;;;;;;;;;;;;;8.06;80.64;99410.63;5053916;28;1037;-89
2022/01/03 18:29:50;;;;;;;;;;;;;;;8.11;80.42;99405.09;5053648;28;973;-88
2022/01/03 18:32:17;;;;;;;;;;;;;;;8.12;80.38;99409.44;5054007;28;1272;-87
2022/01/03 18:34:42;;;;;;;;;;;;;;;8.06;79.96;99407.91;5053978;28;1140;-88
2022/01/03 18:37:10;;;;;;;;;;;;;;;8.04;79.76;99413.63;5053707;28;1192;-87
2022/01/03 18:39:35;;;;;;;;;;;;;;;8.11;79.12;99405.91;5053711;28;1272;-88
2022/01/03 18:42:00;;;;;;;;;;;;;;;8.14;78.92;99413.53;5053599;28;1200;-87
2022/01/03 18:44:26;;;;;;;;;;;;;;;8.23;78.17;99417.22;5053508;28;1901;-87
2022/01/03 18:46:51;;;;;;;;;;;;;;;8.25;78.14;99411.50;5055010;28;1044;-88
2022/01/03 18:49:16;;;;;;;;;;;;;;;8.23;78.29;99413.69;5053545;28;1271;-89
2022/01/03 18:51:42;;;;;;;;;;;;;;;8.22;78.19;99409.34;5052374;28;1333;-88
2022/01/03 18:54:08;;;;;;;;;;;;;;;8.25;78.06;99414.22;5053516;28;1223;-89
2022/01/03 18:56:35;;;;;;;;;;;;;;;8.24;78.10;99412.59;5053206;28;1283;-90
2022/01/03 18:59:01;;;;;;;;;;;;;;;8.25;77.74;99415.00;5052996;28;1277;-87
2022/01/03 19:01:29;;;;;;;;;;;;;;;8.29;77.37;99412.50;5061974;28;1576;-87
2022/01/03 19:03:57;;;;;;;;;;;;;;;8.30;77.26;99416.88;5089398;28;1898;-88
2022/01/03 19:06:22;;;;;;;;;;;;;;;8.31;77.25;99410.34;5092411;28;1611;-87
2022/01/03 19:08:47;;;;;;;;;;;;;;;8.32;76.93;99401.06;5075333;28;1749;-87
2022/01/03 19:11:12;;;;;;;;;;;;;;;8.32;76.60;99384.72;5054098;28;1040;-88
2022/01/03 19:13:38;;;;;;;;;;;;;;;8.29;77.04;99382.53;5068090;28;1323;-89
2022/01/03 19:16:03;;;;;;;;;;;;;;;8.27;77.20;99374.63;5053355;28;1017;-87
2022/01/03 19:18:28;;;;;;;;;;;;;;;8.26;77.02;99373.00;5052472;28;1318;-88
2022/01/03 19:20:53;;;;;;;;;;;;;;;8.26;77.01;99370.28;5052626;28;918;-88
2022/01/03 19:23:18;;;;;;;;;;;;;;;8.25;76.69;99370.59;5059316;28;1426;-88
2022/01/03 19:25:44;;;;;;;;;;;;;;;8.22;76.82;99374.72;5072681;28;1893;-88
2022/01/03 19:28:10;;;;;;;;;;;;;;;8.24;76.75;99377.97;5072746;28;1308;-89
2022/01/03 19:30:39;;;;;;;;;;;;;;;8.23;76.93;99372.78;5072762;28;1311;-89
2022/01/03 19:38:16;;;;;;;;;;;;;;;8.24;77.04;99361.59;5083833;28;1440;-88
2022/01/03 19:40:42;;;;;;;;;;;;;;;8.27;77.40;99361.00;5072003;28;1532;-88
2022/01/03 19:43:07;;;;;;;;;;;;;;;8.27;77.23;99362.91;5072513;28;1250;-87
2022/01/03 19:45:32;;;;;;;;;;;;;;;8.27;76.92;99354.72;5072704;28;1967;-88
2022/01/03 19:47:58;;;;;;;;;;;;;;;8.26;77.16;99347.66;5073089;28;1289;-87
2022/01/03 19:50:23;;;;;;;;;;;;;;;8.21;77.31;99337.66;5074297;28;1191;-87
2022/01/03 19:52:48;;;;;;;;;;;;;;;8.26;77.40;99329.38;5089265;28;1237;-90
2022/01/03 19:55:13;;;;;;;;;;;;;;;8.25;77.62;99332.44;5097195;28;1008;-88
2022/01/03 19:57:39;;;;;;;;;;;;;;;8.27;77.77;99325.56;5096749;28;1312;-88
2022/01/03 20:00:05;;;;;;;;;;;;;;;8.21;77.56;99329.47;5082498;28;1404;-88
2022/01/03 20:02:30;;;;;;;;;;;;;;;8.23;77.65;99321.00;5072734;28;1350;-88
2022/01/03 20:04:55;;;;;;;;;;;;;;;8.25;77.94;99332.44;5072329;28;1967;-88
2022/01/03 20:07:20;;;;;;;;;;;;;;;8.12;78.32;99323.06;5072454;28;1037;-87
2022/01/03 20:09:47;;;;;;;;;;;;;;;8.14;78.84;99323.56;5073286;28;997;-87
2022/01/03 20:12:12;;;;;;;;;;;;;;;8.17;78.76;99319.44;5071034;28;1234;-87
2022/01/03 20:14:37;;;;;;;;;;;;;;;8.15;79.09;99316.22;5073583;28;918;-87
2022/01/03 20:17:03;;;;;;;;;;;;;;;8.13;78.92;99329.31;5072376;28;1286;-87
2022/01/03 20:19:28;;;;;;;;;;;;;;;8.07;79.32;99325.03;5072387;28;1262;-87
2022/01/03 20:21:53;;;;;;;;;;;;;;;8.12;79.45;99323.06;5072235;28;1283;-87
2022/01/03 20:24:18;;;;;;;;;;;;;;;8.09;79.50;99320.09;5072170;28;1960;-88
2022/01/03 20:26:44;;;;;;;;;;;;;;;8.10;79.35;99321.72;5072297;28;1369;-87
2022/01/03 20:29:09;;;;;;;;;;;;;;;8.14;79.29;99311.84;5072468;28;1199;-87
2022/01/03 20:31:35;;;;;;;;;;;;;;;8.12;79.16;99309.44;5073888;28;1194;-87
2022/01/03 20:34:00;;;;;;;;;;;;;;;8.08;79.17;99308.38;5076021;28;1318;-87
2022/01/03 20:36:27;;;;;;;;;;;;;;;8.09;79.23;99312.72;5075995;28;1298;-87
2022/01/03 20:38:52;;;;;;;;;;;;;;;8.12;79.32;99312.16;5055702;28;1756;-87
2022/01/03 20:41:18;;;;;;;;;;;;;;;8.14;79.40;99309.13;5055582;28;1370;-87
2022/01/03 20:43:43;;;;;;;;;;;;;;;8.12;79.50;99303.16;5072106;28;1910;-86
2022/01/03 20:46:08;;;;;;;;;;;;;;;7.99;79.52;99310.94;5075560;28;1325;-88
2022/01/03 20:48:33;;;;;;;;;;;;;;;7.98;79.65;99311.25;5075509;28;1294;-88
2022/01/03 20:50:58;;;;;;;;;;;;;;;8.00;79.76;99309.03;5075575;28;1191;-88
2022/01/03 20:53:24;;;;;;;;;;;;;;;8.05;79.69;99311.69;5075840;28;1288;-87
2022/01/03 20:55:49;;;;;;;;;;;;;;;8.03;79.60;99318.53;5075425;28;1289;-87
2022/01/03 20:58:16;;;;;;;;;;;;;;;8.01;79.83;99310.66;5075293;28;1258;-87
2022/01/03 21:01:05;;;;;;;;;;;;;;;8.04;79.90;99304.63;5055672;28;1250;-88
2022/01/03 21:03:30;;;;;;;;;;;;;;;7.97;80.18;99296.00;5054227;28;1401;-87
2022/01/03 21:05:56;;;;;;;;;;;;;;;7.92;80.19;99298.78;5070236;28;1962;-87
2022/01/03 21:08:21;;;;;;;;;;;;;;;7.90;80.10;99290.94;5090405;28;1634;-88
2022/01/03 21:10:46;;;;;;;;;;;;;;;8.00;80.24;99303.56;5095610;28;1659;-87
2022/01/03 21:13:12;;;;;;;;;;;;;;;8.00;80.18;99281.78;5092591;28;1315;-87
2022/01/03 21:15:37;;;;;;;;;;;;;;;8.01;80.38;99282.59;5094528;28;1255;-88
2022/01/03 21:18:03;;;;;;;;;;;;;;;7.99;80.46;99280.97;5094563;28;1178;-86
2022/01/03 21:20:28;;;;;;;;;;;;;;;8.05;80.20;99280.91;5088136;28;1629;-87
2022/01/03 21:22:53;;;;;;;;;;;;;;;7.95;80.25;99273.69;5080124;28;1764;-87
2022/01/03 21:25:19;;;;;;;;;;;;;;;7.98;80.52;99268.47;5078415;28;1965;-87
2022/01/03 21:27:44;;;;;;;;;;;;;;;8.00;80.43;99265.44;5075675;28;1489;-87
2022/01/03 21:30:09;;;;;;;;;;;;;;;8.01;80.49;99255.34;5072432;28;1717;-89
2022/01/03 21:32:35;;;;;;;;;;;;;;;7.95;80.49;99260.88;5074527;28;1604;-88
2022/01/03 21:35:00;;;;;;;;;;;;;;;7.92;80.50;99268.81;5064288;28;1787;-88
2022/01/03 21:37:26;;;;;;;;;;;;;;;7.97;80.67;99260.59;5076881;28;786;-87
2022/01/03 21:39:51;;;;;;;;;;;;;;;7.98;80.84;99263.03;5075420;28;1435;-87
2022/01/03 21:42:16;;;;;;;;;;;;;;;7.99;80.89;99259.16;5075102;28;1212;-87
2022/01/03 21:44:41;;;;;;;;;;;;;;;7.89;80.67;99259.34;5075283;28;1890;-88
2022/01/03 21:47:07;;;;;;;;;;;;;;;7.93;81.01;99256.81;5076286;28;1210;-87
2022/01/03 21:49:32;;;;;;;;;;;;;;;7.93;80.88;99249.44;5076578;28;988;-87
2022/01/03 21:51:57;;;;;;;;;;;;;;;7.91;80.89;99254.38;5075464;28;1275;-86
2022/01/03 21:54:22;;;;;;;;;;;;;;;7.85;81.34;99238.41;5076078;28;1259;-87
2022/01/03 21:56:54;;;;;;;;;;;;;;;7.90;81.18;99243.78;5078836;28;1317;-87
2022/01/03 21:59:21;;;;;;;;;;;;;;;7.93;81.03;99237.75;5078914;28;1357;-86
2022/01/03 22:01:47;;;;;;;;;;;;;;;7.91;81.27;99235.31;5079353;28;1228;-87
2022/01/03 22:04:12;;;;;;;;;;;;;;;7.94;81.25;99240.19;5082770;28;1894;-87
2022/01/03 22:06:38;;;;;;;;;;;;;;;8.00;81.20;99238.19;5088663;23;3689;-90
2022/01/03 22:09:03;;;;;;;;;;;;;;;8.01;81.10;99228.09;5014369;28;1438;-89
2022/01/03 22:11:28;;;;;;;;;;;;;;;7.97;80.98;99231.44;5015123;28;1409;-89
2022/01/03 22:13:53;;;;;;;;;;;;;;;7.98;81.01;99234.97;5015031;28;1327;-90
2022/01/03 22:16:19;;;;;;;;;;;;;;;7.99;81.28;99225.69;5014780;28;1428;-90
2022/01/03 22:18:44;;;;;;;;;;;;;;;8.00;81.13;99230.00;5015145;28;1303;-90
2022/01/03 22:21:10;;;;;;;;;;;;;;;7.95;81.11;99225.47;5014760;28;1370;-89
2022/01/03 22:23:35;;;;;;;;;;;;;;;7.94;81.16;99226.56;5014662;28;1372;-89
2022/01/03 22:26:01;;;;;;;;;;;;;;;7.95;80.99;99227.38;4995532;28;1968;-90
2022/01/03 22:28:26;;;;;;;;;;;;;;;7.95;81.21;99228.19;4995097;28;1304;-90
2022/01/03 22:30:52;;;;;;;;;;;;;;;7.98;81.19;99219.44;4995747;28;1366;-90
2022/01/03 22:33:17;;;;;;;;;;;;;;;7.96;81.13;99216.19;4995451;28;1422;-90
2022/01/03 22:35:42;;;;;;;;;;;;;;;7.96;81.30;99208.00;4995345;28;1410;-90
2022/01/03 22:38:08;;;;;;;;;;;;;;;7.96;81.35;99205.28;4995012;28;1342;-90
2022/01/03 22:40:33;;;;;;;;;;;;;;;7.95;81.26;99195.47;4996465;28;950;-90
2022/01/03 22:42:58;;;;;;;;;;;;;;;7.90;81.36;99202.94;4994689;28;1248;-90
2022/01/03 22:45:25;;;;;;;;;;;;;;;7.94;81.41;99202.03;4995115;28;1996;-90
2022/01/03 22:47:51;;;;;;;;;;;;;;;7.98;81.56;99199.53;4994799;28;1390;-89
2022/01/03 22:50:16;;;;;;;;;;;;;;;7.96;81.48;99180.75;4995253;28;1219;-90
2022/01/03 22:52:42;;;;;;;;;;;;;;;7.94;81.62;99179.44;4996114;28;910;-90
2022/01/03 22:55:08;;;;;;;;;;;;;;;7.93;81.61;99170.44;4995278;28;823;-90
2022/01/03 22:57:33;;;;;;;;;;;;;;;7.83;81.38;99167.84;4994209;28;1295;-90
2022/01/03 22:59:58;;;;;;;;;;;;;;;7.83;81.50;99167.06;4994595;28;1189;-90
2022/01/03 23:02:24;;;;;;;;;;;;;;;7.84;81.88;99166.75;4994632;28;1263;-90
2022/01/03 23:04:52;;;;;;;;;;;;;;;7.83;81.70;99164.31;4994266;28;1953;-90
2022/01/03 23:07:17;;;;;;;;;;;;;;;7.80;81.67;99160.28;4993948;28;1295;-90
2022/01/03 23:09:42;;;;;;;;;;;;;;;7.79;81.73;99155.94;4994399;28;1206;-90
2022/01/03 23:12:08;;;;;;;;;;;;;;;7.77;81.88;99160.06;4994273;28;1319;-90
2022/01/03 23:14:33;;;;;;;;;;;;;;;7.77;81.91;99147.25;4994422;28;1322;-90
2022/01/03 23:16:59;;;;;;;;;;;;;;;7.77;81.80;99133.63;4993967;28;1307;-90
2022/01/03 23:19:24;;;;;;;;;;;;;;;7.82;81.81;99144.47;4994155;28;1045;-90
2022/01/03 23:21:49;;;;;;;;;;;;;;;7.74;81.77;99145.13;4993910;28;709;-90
2022/01/03 23:24:34;;;;;;;;;;;;;;;7.76;81.69;99139.38;4994138;28;1961;-90
2022/01/03 23:26:59;;;;;;;;;;;;;;;7.72;81.84;99131.00;4994071;28;1263;-90
2022/01/03 23:29:24;;;;;;;;;;;;;;;7.64;82.04;99125.41;4997936;28;1834;-90
2022/01/03 23:31:49;;;;;;;;;;;;;;;7.72;82.23;99124.75;5013778;28;1196;-90
2022/01/03 23:34:20;;;;;;;;;;;;;;;7.78;82.20;99118.91;5014180;28;1311;-90
2022/01/03 23:36:45;;;;;;;;;;;;;;;7.81;81.93;99109.34;5013669;28;1201;-90
2022/01/03 23:39:11;;;;;;;;;;;;;;;7.79;81.98;99106.91;5013579;28;1289;-90
2022/01/03 23:41:36;;;;;;;;;;;;;;;7.85;82.10;99097.56;5013448;28;1382;-89
2022/01/03 23:44:01;;;;;;;;;;;;;;;7.84;81.93;99093.22;5013463;28;1961;-89
2022/01/03 23:46:27;;;;;;;;;;;;;;;7.77;82.27;99094.69;5013672;28;1190;-89
2022/01/03 23:48:52;;;;;;;;;;;;;;;7.70;82.50;99097.81;5013321;28;1333;-89
2022/01/03 23:51:17;;;;;;;;;;;;;;;7.72;82.30;99083.88;5013681;28;1306;-89
2022/01/03 23:53:42;;;;;;;;;;;;;;;7.74;82.48;99081.69;5007233;28;1508;-89
2022/01/03 23:56:07;;;;;;;;;;;;;;;7.82;82.47;99081.00;4993887;28;1176;-89
2022/01/03 23:58:32;;;;;;;;;;;;;;;7.86;82.27;99068.41;5011182;28;1805;-89
